Hlavní strana
METAR-TAF:

METAR-TAF

Letiště :

Letiště Plzeň Líně

Plzeň, Česká republika

zeměpisná šířka: 49-40-31N, zeměpisná délka: 13-16-29E, výška: 362 m

Aktuální stav počasí

Zpráva byla vytvořena před 24 minutami, v 21:00 UTC
Bezvětří
Teplota 16°C
Vlhkost vzduchu 82%
Tlak 1022 hPa
Viditelnost 10 km a více
Žádná oblačnost pod 1500 m, nevyskytují se cumulonimby.

METAR: LKLN 262100Z AUTO 00000KT CAVOK 16/13 Q1022

Čas: 23:24 (21:24 UTC)


TAF: chybějící

Stav a předpovědi počasí z více než 4 000 letišť (zprávy METAR a TAF).

Červené a žluté tečky na mapě představují dostupné meteorologické stanice.

Když kurzor umístíte na tečku, zobrazí se název stanice.

Pak kliknutím zobrazíte stav a předpověď počasí.

Chcete-li změnit mapu, kliknutím na zelené tlačítko se znaménkem +mapu přiblížíte, kliknutím na zelené tlačítko se znaménkem – mapu oddálíte a kliknutím na zelené šipky přejdete na sousední mapy.


METAR-TAF: